| time (UTC) | temp F | wind direction | speed MPH | gust MPH | rain 1hr in | rain 24hr in | rain mn in | humidity % | barometer mb |
| 20260503040104 | 36 | 96 | 0.0 | 0.0 | 0.00 | 0.00 | 0.00 | 81 | 1008.1 |
| 20260503034603 | 36 | 96 | 0.0 | 0.0 | 0.00 | 0.00 | 0.00 | 81 | 1008.4 |
| 20260503033101 | 37 | 96 | 0.0 | 0.0 | 0.00 | 0.00 | 0.00 | 79 | 1008.6 |
| 20260503031600 | 37 | 96 | 0.0 | 0.0 | 0.00 | 0.00 | 0.00 | 80 | 1009.0 |
| 20260503030057 | 36 | 96 | 0.0 | 0.0 | 0.00 | 0.00 | 0.00 | 80 | 1009.2 |
| 20260503025957 | 36 | 96 | 0.0 | 0.0 | 0.00 | 0.00 | 0.00 | 79 | 1009.4 |
| 20260503023055 | 36 | 96 | 0.0 | 0.0 | 0.00 | 0.00 | 0.00 | 79 | 1009.6 |
| 20260503021550 | 36 | 96 | 0.0 | 0.0 | 0.00 | 0.00 | 0.00 | 77 | 1009.6 |
| 20260503020050 | 36 | 96 | 0.0 | 0.0 | 0.00 | 0.00 | 0.00 | 76 | 1009.7 |
| 20260503015244 | 37 | 96 | 0.0 | 0.0 | 0.00 | 0.00 | 0.00 | 74 | 1010.0 |
| 20260503013753 | 38 | 96 | 0.0 | 0.0 | 0.00 | 0.00 | 0.00 | 70 | 1010.0 |
| 20260503012142 | 42 | 96 | 0.0 | 0.0 | 0.00 | 0.00 | 0.00 | 60 | 1010.2 |
| 20260503011608 | 40 | 96 | 0.0 | 0.0 | 0.00 | 0.00 | 0.00 | 65 | 1010.1 |
| 20260503004545 | 43 | 96 | 0.0 | 0.0 | 0.00 | 0.00 | 0.00 | 56 | 1010.2 |
| 20260503003042 | 45 | 96 | 0.0 | 1.0 | 0.00 | 0.00 | 0.00 | 54 | 1010.3 |
| 20260503001539 | 46 | 97 | 1.0 | 4.0 | 0.00 | 0.00 | 0.00 | 52 | 1010.4 |
| 20260503000039 | 47 | 87 | 1.0 | 4.0 | 0.00 | 0.00 | 0.00 | 50 | 1010.4 |
| 20260502234539 | 49 | 89 | 1.0 | 3.0 | 0.00 | 0.00 | 0.00 | 46 | 1010.5 |
| 20260502233037 | 49 | 87 | 2.0 | 4.0 | 0.00 | 0.00 | 0.00 | 46 | 1010.6 |
| 20260502231541 | 51 | 90 | 3.0 | 6.0 | 0.00 | 0.00 | 0.00 | 41 | 1010.6 |
| 20260502230037 | 53 | 88 | 3.0 | 7.0 | 0.00 | 0.00 | 0.00 | 37 | 1010.8 |
| 20260502224537 | 55 | 35 | 2.0 | 6.0 | 0.00 | 0.00 | 0.00 | 32 | 1010.9 |
| 20260502223735 | 56 | 84 | 3.0 | 7.0 | 0.00 | 0.00 | 0.00 | 32 | 1011.1 |
| 20260502221537 | 55 | 44 | 3.0 | 8.0 | 0.00 | 0.00 | 0.00 | 33 | 1011.2 |
| 20260502220037 | 54 | 63 | 3.0 | 8.0 | 0.00 | 0.00 | 0.00 | 34 | 1011.2 |
| 20260502214537 | 54 | 34 | 3.0 | 9.0 | 0.00 | 0.00 | 0.00 | 34 | 1011.3 |
| 20260502213037 | 55 | 62 | 3.0 | 10.0 | 0.00 | 0.00 | 0.00 | 33 | 1011.5 |
| 20260502211535 | 57 | 29 | 3.0 | 8.0 | 0.00 | 0.00 | 0.00 | 31 | 1011.6 |
| 20260502210037 | 58 | 337 | 3.0 | 11.0 | 0.00 | 0.00 | 0.00 | 26 | 1011.6 |
| 20260502205233 | 56 | 0 | 4.0 | 12.0 | 0.00 | 0.00 | 0.00 | 27 | 1011.8 |
| 20260502203029 | 56 | 355 | 3.0 | 11.0 | 0.00 | 0.00 | 0.00 | 30 | 1012.0 |
| 20260502201530 | 57 | 325 | 4.0 | 11.0 | 0.00 | 0.00 | 0.00 | 27 | 1012.2 |
| 20260502200722 | 57 | 327 | 4.0 | 11.0 | 0.00 | 0.00 | 0.00 | 27 | 1012.3 |
| 20260502194528 | 58 | 288 | 4.0 | 9.0 | 0.00 | 0.00 | 0.00 | 27 | 1012.4 |
| 20260502193028 | 58 | 36 | 5.0 | 12.0 | 0.00 | 0.00 | 0.00 | 31 | 1012.8 |
| 20260502191531 | 58 | 51 | 5.0 | 11.0 | 0.00 | 0.00 | 0.00 | 29 | 1013.1 |
| 20260502190729 | 57 | 246 | 4.0 | 13.0 | 0.00 | 0.00 | 0.00 | 28 | 1013.2 |
| 20260502184528 | 58 | 268 | 5.0 | 14.0 | 0.00 | 0.00 | 0.00 | 28 | 1013.3 |
| 20260502183029 | 57 | 308 | 4.0 | 10.0 | 0.00 | 0.00 | 0.00 | 29 | 1013.4 |
| 20260502181529 | 57 | 344 | 4.0 | 10.0 | 0.00 | 0.00 | 0.00 | 28 | 1013.6 |
| 20260502180724 | 55 | 238 | 5.0 | 10.0 | 0.00 | 0.00 | 0.00 | 33 | 1013.8 |
| 20260502163709 | 54 | 89 | 5.0 | 15.0 | 0.00 | 0.00 | 0.00 | 34 | 1014.9 |
| 20260502161520 | 55 | 345 | 3.0 | 10.0 | 0.00 | 0.00 | 0.00 | 36 | 1014.9 |
| 20260502151521 | 51 | 319 | 3.0 | 10.0 | 0.00 | 0.00 | 0.00 | 38 | 1015.7 |
| 20260502123013 | 31 | 55 | 0.0 | 0.0 | 0.00 | 0.00 | 0.00 | 90 | 1017.4 |
| 20260502121514 | 29 | 55 | 0.0 | 0.0 | 0.00 | 0.00 | 0.00 | 94 | 1017.4 |
| 20260502120708 | 24 | 55 | 0.0 | 0.0 | 0.00 | 0.00 | 0.00 | 93 | 1017.5 |
| 20260502114514 | 22 | 55 | 0.0 | 0.0 | 0.00 | 0.00 | 0.00 | 92 | 1017.5 |
| 20260502113014 | 21 | 55 | 0.0 | 0.0 | 0.00 | 0.00 | 0.00 | 91 | 1017.4 |
| 20260502111512 | 21 | 55 | 0.0 | 0.0 | 0.00 | 0.00 | 0.00 | 91 | 1017.4 |
| 20260502110011 | 21 | 55 | 0.0 | 0.0 | 0.00 | 0.00 | 0.00 | 90 | 1017.4 |
| 20260502104512 | 21 | 55 | 0.0 | 0.0 | 0.00 | 0.00 | 0.00 | 90 | 1017.4 |
| 20260502103012 | 21 | 55 | 0.0 | 0.0 | 0.00 | 0.00 | 0.00 | 90 | 1017.4 |
| 20260502101511 | 21 | 55 | 0.0 | 0.0 | 0.00 | 0.00 | 0.00 | 90 | 1017.4 |
| 20260502091508 | 21 | 55 | 0.0 | 0.0 | 0.00 | 0.00 | 0.00 | 89 | 1017.3 |
| 20260502065956 | 24 | 55 | 0.0 | 0.0 | 0.00 | 0.00 | 0.00 | 90 | 1017.8 |
| 20260502065147 | 24 | 55 | 0.0 | 0.0 | 0.00 | 0.00 | 0.00 | 90 | 1017.8 |
| 20260502062955 | 24 | 55 | 0.0 | 0.0 | 0.00 | 0.00 | 0.00 | 90 | 1017.9 |
| 20260502061451 | 24 | 55 | 0.0 | 0.0 | 0.00 | 0.00 | 0.00 | 90 | 1018.0 |
| 20260502055949 | 24 | 55 | 0.0 | 0.0 | 0.00 | 0.00 | 0.00 | 90 | 1018.0 |
| 20260502054447 | 24 | 55 | 0.0 | 0.0 | 0.00 | 0.00 | 0.00 | 89 | 1018.1 |
| 20260502052945 | 25 | 55 | 0.0 | 0.0 | 0.00 | 0.00 | 0.00 | 89 | 1018.2 |
| 20260502051444 | 25 | 55 | 0.0 | 0.0 | 0.00 | 0.00 | 0.00 | 89 | 1018.2 |
| 20260502050645 | 25 | 55 | 0.0 | 0.0 | 0.00 | 0.00 | 0.00 | 88 | 1018.3 |
| 20260502044443 | 25 | 55 | 0.0 | 0.0 | 0.00 | 0.00 | 0.00 | 88 | 1018.2 |
| 20260502043634 | 26 | 55 | 0.0 | 0.0 | 0.00 | 0.00 | 0.00 | 87 | 1018.3 |
| 20260502041441 | 26 | 55 | 0.0 | 0.0 | 0.00 | 0.00 | 0.00 | 87 | 1018.3 |